sensor_id;sensor_type;location;lat;lon;timestamp;pressure;altitude;pressure_sealevel;temperature;humidity
26087;BME280;13851;43.434;28.338;2022-09-28T00:03:37;98741.66;;;17.67;100.00
26087;BME280;13851;43.434;28.338;2022-09-28T00:06:05;98617.16;;;16.95;100.00
26087;BME280;13851;43.434;28.338;2022-09-28T00:08:32;98785.13;;;18.06;100.00
26087;BME280;13851;43.434;28.338;2022-09-28T00:10:58;98800.06;;;18.05;100.00
26087;BME280;13851;43.434;28.338;2022-09-28T00:13:24;98779.84;;;18.04;100.00
26087;BME280;13851;43.434;28.338;2022-09-28T00:16:04;98800.59;;;18.24;100.00
26087;BME280;13851;43.434;28.338;2022-09-28T00:18:33;98786.41;;;17.76;100.00
26087;BME280;13851;43.434;28.338;2022-09-28T00:21:08;98805.84;;;17.64;100.00
26087;BME280;13851;43.434;28.338;2022-09-28T00:23:35;98766.00;;;17.49;100.00
26087;BME280;13851;43.434;28.338;2022-09-28T00:26:25;98808.22;;;17.56;100.00
26087;BME280;13851;43.434;28.338;2022-09-28T00:28:55;98796.53;;;17.54;100.00
26087;BME280;13851;43.434;28.338;2022-09-28T00:31:23;98658.56;;;16.73;100.00
26087;BME280;13851;43.434;28.338;2022-09-28T00:33:53;98661.72;;;16.65;100.00
26087;BME280;13851;43.434;28.338;2022-09-28T00:36:21;98717.41;;;17.02;100.00
26087;BME280;13851;43.434;28.338;2022-09-28T00:38:47;98614.66;;;16.43;100.00
26087;BME280;13851;43.434;28.338;2022-09-28T00:41:14;98796.13;;;17.45;100.00
26087;BME280;13851;43.434;28.338;2022-09-28T00:43:40;98774.91;;;17.34;100.00
26087;BME280;13851;43.434;28.338;2022-09-28T00:48:40;98744.22;;;17.19;100.00
26087;BME280;13851;43.434;28.338;2022-09-28T00:51:11;98742.91;;;17.21;100.00
26087;BME280;13851;43.434;28.338;2022-09-28T00:53:39;98785.81;;;17.57;100.00
26087;BME280;13851;43.434;28.338;2022-09-28T00:56:13;98789.75;;;17.61;100.00
26087;BME280;13851;43.434;28.338;2022-09-28T00:58:47;98789.00;;;17.49;100.00
26087;BME280;13851;43.434;28.338;2022-09-28T01:01:14;98637.13;;;16.63;100.00
26087;BME280;13851;43.434;28.338;2022-09-28T01:03:40;98632.56;;;16.57;100.00
26087;BME280;13851;43.434;28.338;2022-09-28T01:06:12;98802.75;;;17.61;100.00
26087;BME280;13851;43.434;28.338;2022-09-28T01:08:40;98822.53;;;17.70;100.00
26087;BME280;13851;43.434;28.338;2022-09-28T01:11:09;98760.59;;;17.37;100.00
26087;BME280;13851;43.434;28.338;2022-09-28T01:13:35;98817.84;;;17.53;100.00
26087;BME280;13851;43.434;28.338;2022-09-28T01:22:10;98812.56;;;17.35;100.00
26087;BME280;13851;43.434;28.338;2022-09-28T01:24:45;98772.75;;;17.02;100.00
26087;BME280;13851;43.434;28.338;2022-09-28T01:27:21;98794.72;;;17.26;100.00
26087;BME280;13851;43.434;28.338;2022-09-28T01:35:12;98822.72;;;16.96;100.00
26087;BME280;13851;43.434;28.338;2022-09-28T01:40:18;98831.09;;;17.01;100.00
26087;BME280;13851;43.434;28.338;2022-09-28T01:42:47;98646.69;;;15.82;100.00
26087;BME280;13851;43.434;28.338;2022-09-28T01:45:23;98821.81;;;16.78;100.00
26087;BME280;13851;43.434;28.338;2022-09-28T01:47:54;98829.88;;;16.80;100.00
26087;BME280;13851;43.434;28.338;2022-09-28T01:50:21;98828.97;;;16.74;100.00
26087;BME280;13851;43.434;28.338;2022-09-28T01:52:52;98700.41;;;16.03;100.00
26087;BME280;13851;43.434;28.338;2022-09-28T01:55:27;98832.31;;;16.76;100.00
26087;BME280;13851;43.434;28.338;2022-09-28T01:58:09;98798.59;;;16.51;100.00
26087;BME280;13851;43.434;28.338;2022-09-28T02:00:38;98827.34;;;16.78;100.00
26087;BME280;13851;43.434;28.338;2022-09-28T02:03:14;98702.31;;;16.02;100.00
26087;BME280;13851;43.434;28.338;2022-09-28T02:06:08;98747.66;;;16.47;100.00
26087;BME280;13851;43.434;28.338;2022-09-28T02:08:54;98826.06;;;16.98;100.00
26087;BME280;13851;43.434;28.338;2022-09-28T02:11:23;98801.72;;;16.83;100.00
26087;BME280;13851;43.434;28.338;2022-09-28T02:13:59;98813.28;;;16.80;100.00
26087;BME280;13851;43.434;28.338;2022-09-28T02:16:29;98812.25;;;16.69;100.00
26087;BME280;13851;43.434;28.338;2022-09-28T02:18:59;98665.75;;;15.83;100.00
26087;BME280;13851;43.434;28.338;2022-09-28T02:21:28;98649.00;;;15.73;100.00
26087;BME280;13851;43.434;28.338;2022-09-28T02:24:06;98807.19;;;16.66;100.00
26087;BME280;13851;43.434;28.338;2022-09-28T02:26:37;98831.97;;;16.61;100.00
26087;BME280;13851;43.434;28.338;2022-09-28T02:29:08;98814.06;;;16.63;100.00
26087;BME280;13851;43.434;28.338;2022-09-28T02:31:34;98764.28;;;16.35;100.00
26087;BME280;13851;43.434;28.338;2022-09-28T02:34:00;98646.34;;;15.55;100.00
26087;BME280;13851;43.434;28.338;2022-09-28T02:36:27;98822.38;;;16.63;100.00
26087;BME280;13851;43.434;28.338;2022-09-28T02:38:53;98794.69;;;16.75;100.00
26087;BME280;13851;43.434;28.338;2022-09-28T02:41:45;98815.69;;;17.05;100.00
26087;BME280;13851;43.434;28.338;2022-09-28T02:46:59;98796.59;;;16.75;100.00
26087;BME280;13851;43.434;28.338;2022-09-28T02:52:39;98808.25;;;16.36;100.00
26087;BME280;13851;43.434;28.338;2022-09-28T03:00:30;98766.66;;;16.15;100.00
26087;BME280;13851;43.434;28.338;2022-09-28T03:05:56;98698.06;;;15.59;100.00
26087;BME280;13851;43.434;28.338;2022-09-28T03:08:26;98832.25;;;16.48;100.00
26087;BME280;13851;43.434;28.338;2022-09-28T03:11:01;98861.34;;;16.50;100.00
26087;BME280;13851;43.434;28.338;2022-09-28T03:13:28;98816.19;;;16.45;100.00
26087;BME280;13851;43.434;28.338;2022-09-28T03:16:13;98836.47;;;16.50;100.00
26087;BME280;13851;43.434;28.338;2022-09-28T03:18:39;98705.88;;;15.63;100.00
26087;BME280;13851;43.434;28.338;2022-09-28T03:21:05;98658.75;;;15.52;100.00
26087;BME280;13851;43.434;28.338;2022-09-28T03:23:31;98687.03;;;15.59;100.00
26087;BME280;13851;43.434;28.338;2022-09-28T03:25:57;98843.19;;;16.54;100.00
26087;BME280;13851;43.434;28.338;2022-09-28T03:28:23;98804.44;;;16.26;100.00
26087;BME280;13851;43.434;28.338;2022-09-28T03:30:50;98835.47;;;16.56;100.00
26087;BME280;13851;43.434;28.338;2022-09-28T03:33:15;98818.88;;;16.28;100.00
26087;BME280;13851;43.434;28.338;2022-09-28T03:35:43;98837.34;;;16.39;100.00
26087;BME280;13851;43.434;28.338;2022-09-28T03:38:10;98811.28;;;16.35;100.00
26087;BME280;13851;43.434;28.338;2022-09-28T03:40:35;98845.44;;;16.57;100.00
26087;BME280;13851;43.434;28.338;2022-09-28T03:43:01;98847.88;;;16.54;100.00
26087;BME280;13851;43.434;28.338;2022-09-28T03:45:26;98731.75;;;15.97;100.00
26087;BME280;13851;43.434;28.338;2022-09-28T03:47:52;98845.66;;;16.79;100.00
26087;BME280;13851;43.434;28.338;2022-09-28T03:50:17;98893.09;;;17.17;100.00
26087;BME280;13851;43.434;28.338;2022-09-28T03:52:43;98872.41;;;17.36;100.00
26087;BME280;13851;43.434;28.338;2022-09-28T03:55:09;98723.78;;;16.57;100.00
26087;BME280;13851;43.434;28.338;2022-09-28T03:57:35;98871.13;;;17.60;100.00
26087;BME280;13851;43.434;28.338;2022-09-28T04:00:05;98869.88;;;17.85;100.00
26087;BME280;13851;43.434;28.338;2022-09-28T04:02:32;98717.91;;;16.82;100.00
26087;BME280;13851;43.434;28.338;2022-09-28T04:04:58;98859.75;;;17.74;100.00
26087;BME280;13851;43.434;28.338;2022-09-28T04:07:24;98876.69;;;17.94;100.00
26087;BME280;13851;43.434;28.338;2022-09-28T04:09:50;98844.13;;;17.67;100.00
26087;BME280;13851;43.434;28.338;2022-09-28T04:12:15;98873.59;;;17.74;100.00
26087;BME280;13851;43.434;28.338;2022-09-28T04:14:42;98871.28;;;17.71;100.00
26087;BME280;13851;43.434;28.338;2022-09-28T04:17:07;98841.19;;;17.57;100.00
26087;BME280;13851;43.434;28.338;2022-09-28T04:19:33;98868.72;;;17.81;100.00
26087;BME280;13851;43.434;28.338;2022-09-28T04:21:58;98865.09;;;17.47;100.00
26087;BME280;13851;43.434;28.338;2022-09-28T04:24:25;98867.09;;;17.18;100.00
26087;BME280;13851;43.434;28.338;2022-09-28T04:26:51;98866.59;;;17.21;100.00
26087;BME280;13851;43.434;28.338;2022-09-28T04:29:16;98858.13;;;17.27;100.00
26087;BME280;13851;43.434;28.338;2022-09-28T04:31:50;98854.78;;;17.25;100.00
26087;BME280;13851;43.434;28.338;2022-09-28T04:34:18;98865.06;;;17.30;100.00
26087;BME280;13851;43.434;28.338;2022-09-28T04:36:45;98864.09;;;17.36;100.00
26087;BME280;13851;43.434;28.338;2022-09-28T04:39:12;98857.63;;;17.47;100.00
26087;BME280;13851;43.434;28.338;2022-09-28T04:41:39;98867.56;;;17.77;100.00
26087;BME280;13851;43.434;28.338;2022-09-28T04:44:04;98854.09;;;17.85;100.00
26087;BME280;13851;43.434;28.338;2022-09-28T04:46:30;98861.31;;;18.03;100.00
26087;BME280;13851;43.434;28.338;2022-09-28T04:48:56;98822.66;;;18.13;100.00
26087;BME280;13851;43.434;28.338;2022-09-28T04:51:22;98839.16;;;18.47;100.00
26087;BME280;13851;43.434;28.338;2022-09-28T04:53:48;98843.69;;;18.53;100.00
26087;BME280;13851;43.434;28.338;2022-09-28T04:56:14;98784.00;;;18.51;100.00
26087;BME280;13851;43.434;28.338;2022-09-28T04:58:40;98823.59;;;18.90;100.00
26087;BME280;13851;43.434;28.338;2022-09-28T05:01:09;98847.50;;;18.96;100.00
26087;BME280;13851;43.434;28.338;2022-09-28T05:03:36;98666.00;;;17.84;100.00
26087;BME280;13851;43.434;28.338;2022-09-28T05:06:02;98818.50;;;18.82;100.00
26087;BME280;13851;43.434;28.338;2022-09-28T05:08:28;98837.25;;;18.96;100.00
26087;BME280;13851;43.434;28.338;2022-09-28T05:10:58;98680.19;;;18.14;100.00
26087;BME280;13851;43.434;28.338;2022-09-28T05:13:24;98828.13;;;19.01;100.00
26087;BME280;13851;43.434;28.338;2022-09-28T05:15:52;98845.03;;;19.27;100.00
26087;BME280;13851;43.434;28.338;2022-09-28T05:18:18;98843.94;;;19.28;100.00
26087;BME280;13851;43.434;28.338;2022-09-28T05:20:44;98827.56;;;18.99;100.00
26087;BME280;13851;43.434;28.338;2022-09-28T05:23:10;98693.66;;;18.06;100.00
26087;BME280;13851;43.434;28.338;2022-09-28T05:25:40;98866.38;;;18.94;100.00
26087;BME280;13851;43.434;28.338;2022-09-28T05:28:12;98840.25;;;18.68;100.00
26087;BME280;13851;43.434;28.338;2022-09-28T05:30:37;98855.72;;;18.86;100.00
26087;BME280;13851;43.434;28.338;2022-09-28T05:33:03;98852.91;;;19.08;100.00
26087;BME280;13851;43.434;28.338;2022-09-28T05:35:30;98840.63;;;19.04;100.00
26087;BME280;13851;43.434;28.338;2022-09-28T05:38:01;98854.00;;;19.07;100.00
26087;BME280;13851;43.434;28.338;2022-09-28T12:21:43;98877.22;;;25.56;100.00
26087;BME280;13851;43.434;28.338;2022-09-28T12:24:17;98845.06;;;24.92;100.00
26087;BME280;13851;43.434;28.338;2022-09-28T12:26:55;98861.63;;;25.12;100.00
26087;BME280;13851;43.434;28.338;2022-09-28T12:29:30;98866.09;;;25.13;100.00
26087;BME280;13851;43.434;28.338;2022-09-28T12:32:09;98854.88;;;25.13;100.00
26087;BME280;13851;43.434;28.338;2022-09-28T12:34:36;98851.22;;;24.94;100.00
26087;BME280;13851;43.434;28.338;2022-09-28T12:37:19;98815.47;;;25.23;100.00
26087;BME280;13851;43.434;28.338;2022-09-28T12:57:31;98857.38;;;25.52;100.00
26087;BME280;13851;43.434;28.338;2022-09-28T13:00:39;98847.78;;;25.39;100.00
26087;BME280;13851;43.434;28.338;2022-09-28T13:08:43;98847.47;;;25.22;100.00
26087;BME280;13851;43.434;28.338;2022-09-28T13:11:24;98854.56;;;25.33;100.00
26087;BME280;13851;43.434;28.338;2022-09-28T13:25:03;98856.13;;;24.83;100.00
26087;BME280;13851;43.434;28.338;2022-09-28T13:27:39;98848.69;;;24.49;100.00
26087;BME280;13851;43.434;28.338;2022-09-28T13:30:07;98848.75;;;24.68;100.00
26087;BME280;13851;43.434;28.338;2022-09-28T13:32:34;98858.44;;;24.57;100.00
26087;BME280;13851;43.434;28.338;2022-09-28T13:35:01;98849.59;;;24.45;100.00
26087;BME280;13851;43.434;28.338;2022-09-28T13:37:28;98866.22;;;24.60;100.00
26087;BME280;13851;43.434;28.338;2022-09-28T13:39:55;98828.97;;;24.59;100.00
26087;BME280;13851;43.434;28.338;2022-09-28T13:48:15;98868.13;;;25.07;100.00
26087;BME280;13851;43.434;28.338;2022-09-28T13:51:03;98857.16;;;24.68;100.00
26087;BME280;13851;43.434;28.338;2022-09-28T14:02:12;98838.25;;;24.98;100.00
26087;BME280;13851;43.434;28.338;2022-09-28T14:10:21;98873.94;;;25.86;100.00
26087;BME280;13851;43.434;28.338;2022-09-28T14:12:52;98880.69;;;25.66;100.00
26087;BME280;13851;43.434;28.338;2022-09-28T14:17:59;98879.72;;;25.38;100.00
26087;BME280;13851;43.434;28.338;2022-09-28T14:20:33;98880.94;;;25.32;100.00
26087;BME280;13851;43.434;28.338;2022-09-28T14:28:42;98862.72;;;24.20;100.00
26087;BME280;13851;43.434;28.338;2022-09-28T14:31:23;98896.84;;;24.22;100.00
26087;BME280;13851;43.434;28.338;2022-09-28T14:33:59;98882.53;;;23.60;100.00
26087;BME280;13851;43.434;28.338;2022-09-28T14:36:37;98897.44;;;23.51;100.00
26087;BME280;13851;43.434;28.338;2022-09-28T14:39:33;98909.59;;;23.31;100.00
26087;BME280;13851;43.434;28.338;2022-09-28T14:42:24;98784.72;;;22.27;100.00
26087;BME280;13851;43.434;28.338;2022-09-28T14:52:52;98925.88;;;23.58;100.00
26087;BME280;13851;43.434;28.338;2022-09-28T14:55:46;98935.25;;;23.82;100.00
26087;BME280;13851;43.434;28.338;2022-09-28T14:58:18;98943.84;;;23.91;100.00
26087;BME280;13851;43.434;28.338;2022-09-28T15:00:45;98889.22;;;23.65;100.00
26087;BME280;13851;43.434;28.338;2022-09-28T15:03:12;98929.63;;;23.88;100.00
26087;BME280;13851;43.434;28.338;2022-09-28T15:05:43;98786.22;;;22.64;100.00
26087;BME280;13851;43.434;28.338;2022-09-28T15:08:11;98951.78;;;23.34;100.00
26087;BME280;13851;43.434;28.338;2022-09-28T15:10:41;98909.81;;;22.80;100.00
26087;BME280;13851;43.434;28.338;2022-09-28T15:13:24;98782.03;;;21.76;100.00
26087;BME280;13851;43.434;28.338;2022-09-28T15:21:10;98976.28;;;22.78;100.00
26087;BME280;13851;43.434;28.338;2022-09-28T15:23:38;98999.22;;;22.60;100.00
26087;BME280;13851;43.434;28.338;2022-09-28T15:26:06;98983.34;;;22.40;100.00
26087;BME280;13851;43.434;28.338;2022-09-28T15:28:34;98970.81;;;22.32;100.00
26087;BME280;13851;43.434;28.338;2022-09-28T15:31:04;98996.75;;;22.27;100.00
26087;BME280;13851;43.434;28.338;2022-09-28T15:33:31;99000.91;;;22.30;100.00
26087;BME280;13851;43.434;28.338;2022-09-28T15:36:25;98989.47;;;21.86;100.00
26087;BME280;13851;43.434;28.338;2022-09-28T15:38:56;99013.44;;;21.76;100.00
26087;BME280;13851;43.434;28.338;2022-09-28T15:41:23;99020.94;;;21.71;100.00
26087;BME280;13851;43.434;28.338;2022-09-28T15:47:03;99045.69;;;21.52;100.00
26087;BME280;13851;43.434;28.338;2022-09-28T15:49:37;98881.19;;;20.43;100.00
26087;BME280;13851;43.434;28.338;2022-09-28T15:52:06;99020.25;;;21.33;100.00
26087;BME280;13851;43.434;28.338;2022-09-28T15:54:45;99051.31;;;21.72;100.00
26087;BME280;13851;43.434;28.338;2022-09-28T15:57:46;99048.25;;;21.74;100.00
26087;BME280;13851;43.434;28.338;2022-09-28T16:00:22;98937.16;;;21.05;100.00
26087;BME280;13851;43.434;28.338;2022-09-28T16:08:05;99038.81;;;21.90;100.00
26087;BME280;13851;43.434;28.338;2022-09-28T16:11:12;98865.53;;;20.90;100.00
26087;BME280;13851;43.434;28.338;2022-09-28T16:13:58;99049.13;;;21.95;100.00
26087;BME280;13851;43.434;28.338;2022-09-28T16:16:36;99031.31;;;21.96;100.00
26087;BME280;13851;43.434;28.338;2022-09-28T16:19:03;99026.28;;;21.98;100.00
26087;BME280;13851;43.434;28.338;2022-09-28T16:21:42;99050.25;;;21.99;100.00
26087;BME280;13851;43.434;28.338;2022-09-28T16:24:38;99051.09;;;21.94;100.00
26087;BME280;13851;43.434;28.338;2022-09-28T16:27:31;98944.78;;;21.35;100.00
26087;BME280;13851;43.434;28.338;2022-09-28T16:30:18;99073.41;;;22.10;100.00
26087;BME280;13851;43.434;28.338;2022-09-28T16:32:56;99032.97;;;21.92;100.00
26087;BME280;13851;43.434;28.338;2022-09-28T16:38:07;99060.34;;;22.30;100.00
26087;BME280;13851;43.434;28.338;2022-09-28T16:40:33;98909.66;;;21.39;100.00
26087;BME280;13851;43.434;28.338;2022-09-28T16:43:04;99045.03;;;22.23;100.00
26087;BME280;13851;43.434;28.338;2022-09-28T16:45:30;98910.50;;;21.39;100.00
26087;BME280;13851;43.434;28.338;2022-09-28T16:47:57;98902.72;;;21.31;100.00
26087;BME280;13851;43.434;28.338;2022-09-28T16:50:23;99060.34;;;22.36;100.00
26087;BME280;13851;43.434;28.338;2022-09-28T16:52:58;99006.16;;;21.65;100.00
26087;BME280;13851;43.434;28.338;2022-09-28T16:55:45;99070.44;;;21.43;100.00
26087;BME280;13851;43.434;28.338;2022-09-28T16:58:11;99048.34;;;21.26;100.00
26087;BME280;13851;43.434;28.338;2022-09-28T17:00:37;99091.41;;;21.51;100.00
26087;BME280;13851;43.434;28.338;2022-09-28T17:03:14;99087.50;;;21.57;100.00
26087;BME280;13851;43.434;28.338;2022-09-28T17:05:40;99073.91;;;21.66;100.00
26087;BME280;13851;43.434;28.338;2022-09-28T17:08:05;99072.97;;;21.40;100.00
26087;BME280;13851;43.434;28.338;2022-09-28T17:10:56;99086.59;;;21.36;100.00
26087;BME280;13851;43.434;28.338;2022-09-28T17:13:25;99082.44;;;21.44;100.00
26087;BME280;13851;43.434;28.338;2022-09-28T17:15:56;99068.66;;;21.22;100.00
26087;BME280;13851;43.434;28.338;2022-09-28T17:18:24;99090.78;;;21.39;100.00
26087;BME280;13851;43.434;28.338;2022-09-28T17:20:51;99064.75;;;21.18;100.00
26087;BME280;13851;43.434;28.338;2022-09-28T17:23:19;99060.47;;;21.00;100.00
26087;BME280;13851;43.434;28.338;2022-09-28T17:25:45;99084.03;;;21.29;100.00
26087;BME280;13851;43.434;28.338;2022-09-28T17:28:23;99068.88;;;21.10;100.00
26087;BME280;13851;43.434;28.338;2022-09-28T17:30:50;99113.81;;;21.29;100.00
26087;BME280;13851;43.434;28.338;2022-09-28T17:33:16;98910.25;;;20.20;100.00
26087;BME280;13851;43.434;28.338;2022-09-28T17:35:42;99058.72;;;21.31;100.00
26087;BME280;13851;43.434;28.338;2022-09-28T17:38:12;99093.13;;;21.67;100.00
26087;BME280;13851;43.434;28.338;2022-09-28T17:40:39;99071.84;;;21.36;100.00
26087;BME280;13851;43.434;28.338;2022-09-28T17:43:04;98948.22;;;20.42;100.00
26087;BME280;13851;43.434;28.338;2022-09-28T17:45:31;99090.09;;;21.21;100.00
26087;BME280;13851;43.434;28.338;2022-09-28T17:47:57;99114.38;;;21.26;100.00
26087;BME280;13851;43.434;28.338;2022-09-28T17:50:29;99083.38;;;21.12;100.00
26087;BME280;13851;43.434;28.338;2022-09-28T17:52:56;99121.06;;;21.25;100.00
26087;BME280;13851;43.434;28.338;2022-09-28T17:55:25;99117.41;;;21.19;100.00
26087;BME280;13851;43.434;28.338;2022-09-28T17:57:55;99117.88;;;21.06;100.00
26087;BME280;13851;43.434;28.338;2022-09-28T18:00:21;99122.56;;;21.00;100.00
26087;BME280;13851;43.434;28.338;2022-09-28T18:02:56;99109.91;;;20.83;100.00
26087;BME280;13851;43.434;28.338;2022-09-28T18:05:23;99129.72;;;20.86;100.00
26087;BME280;13851;43.434;28.338;2022-09-28T18:07:50;99142.84;;;20.91;100.00
26087;BME280;13851;43.434;28.338;2022-09-28T18:10:22;99120.72;;;20.74;100.00
26087;BME280;13851;43.434;28.338;2022-09-28T18:12:49;99138.38;;;20.90;100.00
26087;BME280;13851;43.434;28.338;2022-09-28T18:15:16;99112.09;;;20.75;100.00
26087;BME280;13851;43.434;28.338;2022-09-28T18:17:42;99131.16;;;20.94;100.00
26087;BME280;13851;43.434;28.338;2022-09-28T18:20:09;99099.56;;;20.73;100.00
26087;BME280;13851;43.434;28.338;2022-09-28T18:22:35;99130.03;;;20.90;100.00
26087;BME280;13851;43.434;28.338;2022-09-28T18:25:01;99105.13;;;20.73;100.00
26087;BME280;13851;43.434;28.338;2022-09-28T18:27:27;99142.31;;;20.94;100.00
26087;BME280;13851;43.434;28.338;2022-09-28T18:29:54;99157.59;;;20.91;100.00
26087;BME280;13851;43.434;28.338;2022-09-28T18:32:20;98974.50;;;19.87;100.00
26087;BME280;13851;43.434;28.338;2022-09-28T18:34:46;99085.75;;;20.51;100.00
26087;BME280;13851;43.434;28.338;2022-09-28T18:37:11;99101.44;;;20.67;100.00
26087;BME280;13851;43.434;28.338;2022-09-28T18:39:38;99136.78;;;20.99;100.00
26087;BME280;13851;43.434;28.338;2022-09-28T18:42:04;99135.88;;;20.93;100.00
26087;BME280;13851;43.434;28.338;2022-09-28T18:44:29;99133.28;;;20.82;100.00
26087;BME280;13851;43.434;28.338;2022-09-28T18:46:55;99129.28;;;20.67;100.00
26087;BME280;13851;43.434;28.338;2022-09-28T18:49:21;99094.44;;;20.60;100.00
26087;BME280;13851;43.434;28.338;2022-09-28T18:51:47;99109.38;;;20.86;100.00
26087;BME280;13851;43.434;28.338;2022-09-28T18:54:14;99124.28;;;21.07;100.00
26087;BME280;13851;43.434;28.338;2022-09-28T18:56:40;99087.50;;;20.99;100.00
26087;BME280;13851;43.434;28.338;2022-09-28T18:59:07;99126.88;;;21.23;100.00
26087;BME280;13851;43.434;28.338;2022-09-28T19:01:34;98949.78;;;19.90;100.00
26087;BME280;13851;43.434;28.338;2022-09-28T19:04:03;99131.50;;;21.02;100.00
26087;BME280;13851;43.434;28.338;2022-09-28T19:06:29;99160.28;;;21.18;100.00
26087;BME280;13851;43.434;28.338;2022-09-28T19:08:56;99122.44;;;21.27;100.00
26087;BME280;13851;43.434;28.338;2022-09-28T19:11:22;99122.06;;;21.56;100.00
26087;BME280;13851;43.434;28.338;2022-09-28T19:13:52;99103.63;;;21.45;100.00
26087;BME280;13851;43.434;28.338;2022-09-28T19:16:21;98966.53;;;20.75;100.00
26087;BME280;13851;43.434;28.338;2022-09-28T19:18:47;98969.72;;;20.99;100.00
26087;BME280;13851;43.434;28.338;2022-09-28T19:21:16;99071.34;;;21.59;100.00
26087;BME280;13851;43.434;28.338;2022-09-28T19:23:43;99061.91;;;21.60;100.00
26087;BME280;13851;43.434;28.338;2022-09-28T19:26:17;99082.84;;;21.83;100.00
26087;BME280;13851;43.434;28.338;2022-09-28T19:28:45;99091.53;;;21.87;100.00
26087;BME280;13851;43.434;28.338;2022-09-28T19:31:13;99072.53;;;21.84;100.00
26087;BME280;13851;43.434;28.338;2022-09-28T19:33:39;99072.25;;;21.80;100.00
26087;BME280;13851;43.434;28.338;2022-09-28T19:36:11;99089.84;;;21.91;100.00
26087;BME280;13851;43.434;28.338;2022-09-28T19:38:40;98936.91;;;21.16;100.00
26087;BME280;13851;43.434;28.338;2022-09-28T19:41:11;99059.16;;;21.80;100.00
26087;BME280;13851;43.434;28.338;2022-09-28T19:43:37;99045.13;;;21.45;100.00
26087;BME280;13851;43.434;28.338;2022-09-28T19:46:04;99110.13;;;21.61;100.00
26087;BME280;13851;43.434;28.338;2022-09-28T19:48:31;99111.75;;;21.57;100.00
26087;BME280;13851;43.434;28.338;2022-09-28T19:50:59;99109.50;;;21.48;100.00
26087;BME280;13851;43.434;28.338;2022-09-28T19:53:27;99115.84;;;21.39;100.00
26087;BME280;13851;43.434;28.338;2022-09-28T19:55:57;99105.06;;;21.05;100.00
26087;BME280;13851;43.434;28.338;2022-09-28T19:58:24;99126.47;;;20.99;100.00
26087;BME280;13851;43.434;28.338;2022-09-28T20:00:52;99131.44;;;20.97;100.00
26087;BME280;13851;43.434;28.338;2022-09-28T20:03:17;99115.47;;;20.83;100.00
26087;BME280;13851;43.434;28.338;2022-09-28T20:05:44;99128.91;;;20.91;100.00
26087;BME280;13851;43.434;28.338;2022-09-28T20:08:11;99126.09;;;20.86;100.00
26087;BME280;13851;43.434;28.338;2022-09-28T20:10:37;99135.78;;;20.78;100.00
26087;BME280;13851;43.434;28.338;2022-09-28T20:13:03;99114.00;;;20.70;100.00
26087;BME280;13851;43.434;28.338;2022-09-28T20:15:29;99000.09;;;19.89;100.00
26087;BME280;13851;43.434;28.338;2022-09-28T20:17:55;99110.69;;;20.73;100.00
26087;BME280;13851;43.434;28.338;2022-09-28T20:20:22;99108.72;;;20.68;100.00
26087;BME280;13851;43.434;28.338;2022-09-28T20:22:47;99154.81;;;20.91;100.00
26087;BME280;13851;43.434;28.338;2022-09-28T20:25:13;99100.41;;;20.73;100.00
26087;BME280;13851;43.434;28.338;2022-09-28T20:27:38;99150.94;;;20.97;100.00
26087;BME280;13851;43.434;28.338;2022-09-28T20:30:05;99127.91;;;21.07;100.00
26087;BME280;13851;43.434;28.338;2022-09-28T20:32:32;99160.78;;;21.10;100.00
26087;BME280;13851;43.434;28.338;2022-09-28T20:34:57;99126.28;;;21.16;100.00
26087;BME280;13851;43.434;28.338;2022-09-28T20:37:23;99135.88;;;21.31;100.00
26087;BME280;13851;43.434;28.338;2022-09-28T20:39:51;99132.28;;;21.35;100.00
26087;BME280;13851;43.434;28.338;2022-09-28T20:42:17;99138.94;;;21.34;100.00
26087;BME280;13851;43.434;28.338;2022-09-28T20:44:43;99132.31;;;21.40;100.00
26087;BME280;13851;43.434;28.338;2022-09-28T20:47:09;99088.72;;;21.24;100.00
26087;BME280;13851;43.434;28.338;2022-09-28T20:49:34;99125.41;;;21.58;100.00
26087;BME280;13851;43.434;28.338;2022-09-28T20:52:00;99117.00;;;21.48;100.00
26087;BME280;13851;43.434;28.338;2022-09-28T20:54:26;99121.22;;;21.50;100.00
26087;BME280;13851;43.434;28.338;2022-09-28T20:56:52;99119.50;;;21.49;100.00
26087;BME280;13851;43.434;28.338;2022-09-28T20:59:17;98984.56;;;20.67;100.00
26087;BME280;13851;43.434;28.338;2022-09-28T21:01:47;99129.31;;;21.57;100.00
26087;BME280;13851;43.434;28.338;2022-09-28T21:04:13;99122.63;;;21.58;100.00
26087;BME280;13851;43.434;28.338;2022-09-28T21:06:40;99108.66;;;21.48;100.00
26087;BME280;13851;43.434;28.338;2022-09-28T21:09:07;99131.59;;;21.65;100.00
26087;BME280;13851;43.434;28.338;2022-09-28T21:11:33;99100.28;;;21.48;100.00
26087;BME280;13851;43.434;28.338;2022-09-28T21:14:05;99119.25;;;21.46;100.00
26087;BME280;13851;43.434;28.338;2022-09-28T21:16:32;99098.03;;;21.40;100.00
26087;BME280;13851;43.434;28.338;2022-09-28T21:18:58;99123.69;;;21.42;100.00
26087;BME280;13851;43.434;28.338;2022-09-28T21:21:25;99118.34;;;21.35;100.00
26087;BME280;13851;43.434;28.338;2022-09-28T21:23:54;99099.97;;;21.39;100.00
26087;BME280;13851;43.434;28.338;2022-09-28T21:26:23;99129.84;;;21.54;100.00
26087;BME280;13851;43.434;28.338;2022-09-28T21:29:13;99137.09;;;21.50;100.00
26087;BME280;13851;43.434;28.338;2022-09-28T21:31:43;99119.38;;;21.29;100.00
26087;BME280;13851;43.434;28.338;2022-09-28T21:34:17;98953.84;;;20.10;100.00
26087;BME280;13851;43.434;28.338;2022-09-28T21:36:44;99155.44;;;21.03;100.00